sensor_id;sensor_type;location;lat;lon;timestamp;P1;durP1;ratioP1;P2;durP2;ratioP2
20379;SDS011;10349;48.666;8.948;2023-07-20T00:00:49;2.70;;;2.50;;
20379;SDS011;10349;48.666;8.948;2023-07-20T00:03:18;4.47;;;2.47;;
20379;SDS011;10349;48.666;8.948;2023-07-20T00:05:48;2.80;;;2.50;;
20379;SDS011;10349;48.666;8.948;2023-07-20T00:08:14;2.27;;;2.07;;
20379;SDS011;10349;48.666;8.948;2023-07-20T00:10:41;2.50;;;2.30;;
20379;SDS011;10349;48.666;8.948;2023-07-20T00:13:07;2.97;;;2.77;;
20379;SDS011;10349;48.666;8.948;2023-07-20T00:15:33;3.03;;;2.50;;
20379;SDS011;10349;48.666;8.948;2023-07-20T00:17:58;3.17;;;2.43;;
20379;SDS011;10349;48.666;8.948;2023-07-20T00:20:24;2.70;;;2.50;;
20379;SDS011;10349;48.666;8.948;2023-07-20T00:22:50;2.87;;;2.60;;
20379;SDS011;10349;48.666;8.948;2023-07-20T00:25:17;2.50;;;2.30;;
20379;SDS011;10349;48.666;8.948;2023-07-20T00:27:43;3.10;;;2.20;;
20379;SDS011;10349;48.666;8.948;2023-07-20T00:30:09;2.63;;;2.43;;
20379;SDS011;10349;48.666;8.948;2023-07-20T00:32:35;3.40;;;2.23;;
20379;SDS011;10349;48.666;8.948;2023-07-20T00:35:01;2.67;;;2.47;;
20379;SDS011;10349;48.666;8.948;2023-07-20T00:37:28;5.63;;;2.30;;
20379;SDS011;10349;48.666;8.948;2023-07-20T00:39:54;2.00;;;1.80;;
20379;SDS011;10349;48.666;8.948;2023-07-20T00:42:19;3.10;;;2.43;;
20379;SDS011;10349;48.666;8.948;2023-07-20T00:44:45;2.20;;;2.10;;
20379;SDS011;10349;48.666;8.948;2023-07-20T00:47:11;3.33;;;2.87;;
20379;SDS011;10349;48.666;8.948;2023-07-20T00:49:37;1.80;;;1.70;;
20379;SDS011;10349;48.666;8.948;2023-07-20T00:52:03;2.70;;;2.50;;
20379;SDS011;10349;48.666;8.948;2023-07-20T00:54:31;2.53;;;2.33;;
20379;SDS011;10349;48.666;8.948;2023-07-20T00:56:57;2.63;;;2.43;;
20379;SDS011;10349;48.666;8.948;2023-07-20T00:59:25;2.90;;;2.70;;
20379;SDS011;10349;48.666;8.948;2023-07-20T01:01:51;2.57;;;2.37;;
20379;SDS011;10349;48.666;8.948;2023-07-20T01:04:17;2.07;;;1.97;;
20379;SDS011;10349;48.666;8.948;2023-07-20T01:09:42;1.67;;;1.57;;
20379;SDS011;10349;48.666;8.948;2023-07-20T01:12:35;1.90;;;1.80;;
20379;SDS011;10349;48.666;8.948;2023-07-20T01:15:11;2.33;;;2.13;;
20379;SDS011;10349;48.666;8.948;2023-07-20T01:17:38;2.70;;;2.50;;
20379;SDS011;10349;48.666;8.948;2023-07-20T01:20:05;2.70;;;2.50;;
20379;SDS011;10349;48.666;8.948;2023-07-20T01:31:32;2.30;;;2.17;;
20379;SDS011;10349;48.666;8.948;2023-07-20T01:34:00;5.03;;;2.50;;
20379;SDS011;10349;48.666;8.948;2023-07-20T01:36:29;2.50;;;2.30;;
20379;SDS011;10349;48.666;8.948;2023-07-20T01:38:58;2.37;;;2.17;;
20379;SDS011;10349;48.666;8.948;2023-07-20T01:41:24;2.23;;;1.93;;
20379;SDS011;10349;48.666;8.948;2023-07-20T01:43:50;10.43;;;2.63;;
20379;SDS011;10349;48.666;8.948;2023-07-20T01:46:15;2.43;;;2.23;;
20379;SDS011;10349;48.666;8.948;2023-07-20T01:48:41;2.20;;;2.10;;
20379;SDS011;10349;48.666;8.948;2023-07-20T01:51:07;2.07;;;1.87;;
20379;SDS011;10349;48.666;8.948;2023-07-20T01:53:33;2.67;;;2.40;;
20379;SDS011;10349;48.666;8.948;2023-07-20T01:55:59;2.60;;;2.40;;
20379;SDS011;10349;48.666;8.948;2023-07-20T01:58:24;3.00;;;2.80;;
20379;SDS011;10349;48.666;8.948;2023-07-20T02:00:51;2.47;;;2.23;;
20379;SDS011;10349;48.666;8.948;2023-07-20T02:03:16;2.13;;;2.03;;
20379;SDS011;10349;48.666;8.948;2023-07-20T02:05:42;2.40;;;2.20;;
20379;SDS011;10349;48.666;8.948;2023-07-20T02:08:08;3.33;;;2.80;;
20379;SDS011;10349;48.666;8.948;2023-07-20T02:10:34;4.03;;;2.90;;
20379;SDS011;10349;48.666;8.948;2023-07-20T02:13:01;2.47;;;2.27;;
20379;SDS011;10349;48.666;8.948;2023-07-20T02:15:26;3.23;;;2.93;;
20379;SDS011;10349;48.666;8.948;2023-07-20T02:17:53;2.70;;;2.50;;
20379;SDS011;10349;48.666;8.948;2023-07-20T02:20:18;2.37;;;2.27;;
20379;SDS011;10349;48.666;8.948;2023-07-20T02:22:44;3.37;;;2.50;;
20379;SDS011;10349;48.666;8.948;2023-07-20T02:25:10;4.10;;;3.30;;
20379;SDS011;10349;48.666;8.948;2023-07-20T02:27:36;4.97;;;3.10;;
20379;SDS011;10349;48.666;8.948;2023-07-20T02:30:03;4.23;;;3.90;;
20379;SDS011;10349;48.666;8.948;2023-07-20T02:32:30;3.77;;;2.50;;
20379;SDS011;10349;48.666;8.948;2023-07-20T02:34:56;3.30;;;3.00;;
20379;SDS011;10349;48.666;8.948;2023-07-20T02:37:22;2.77;;;2.40;;
20379;SDS011;10349;48.666;8.948;2023-07-20T02:39:48;4.43;;;2.50;;
20379;SDS011;10349;48.666;8.948;2023-07-20T02:42:14;2.23;;;2.03;;
20379;SDS011;10349;48.666;8.948;2023-07-20T02:44:40;3.10;;;2.90;;
20379;SDS011;10349;48.666;8.948;2023-07-20T02:47:06;3.00;;;2.50;;
20379;SDS011;10349;48.666;8.948;2023-07-20T02:49:32;2.87;;;2.47;;
20379;SDS011;10349;48.666;8.948;2023-07-20T02:51:58;2.60;;;2.40;;
20379;SDS011;10349;48.666;8.948;2023-07-20T02:54:24;2.77;;;2.57;;
20379;SDS011;10349;48.666;8.948;2023-07-20T02:56:49;2.23;;;2.13;;
20379;SDS011;10349;48.666;8.948;2023-07-20T02:59:15;3.30;;;2.50;;
20379;SDS011;10349;48.666;8.948;2023-07-20T03:01:41;2.40;;;2.20;;
20379;SDS011;10349;48.666;8.948;2023-07-20T03:04:12;2.50;;;2.23;;
20379;SDS011;10349;48.666;8.948;2023-07-20T03:06:38;2.60;;;2.40;;
20379;SDS011;10349;48.666;8.948;2023-07-20T03:09:04;2.93;;;2.23;;
20379;SDS011;10349;48.666;8.948;2023-07-20T03:11:29;2.53;;;2.33;;
20379;SDS011;10349;48.666;8.948;2023-07-20T03:13:57;2.73;;;2.47;;
20379;SDS011;10349;48.666;8.948;2023-07-20T03:16:23;5.00;;;2.50;;
20379;SDS011;10349;48.666;8.948;2023-07-20T03:18:51;2.73;;;2.53;;
20379;SDS011;10349;48.666;8.948;2023-07-20T03:21:17;2.57;;;2.37;;
20379;SDS011;10349;48.666;8.948;2023-07-20T03:23:43;2.53;;;2.33;;
20379;SDS011;10349;48.666;8.948;2023-07-20T03:26:09;2.50;;;2.30;;
20379;SDS011;10349;48.666;8.948;2023-07-20T03:28:35;2.77;;;2.60;;
20379;SDS011;10349;48.666;8.948;2023-07-20T03:31:04;2.10;;;2.00;;
20379;SDS011;10349;48.666;8.948;2023-07-20T03:33:33;3.33;;;2.70;;
20379;SDS011;10349;48.666;8.948;2023-07-20T03:36:00;3.10;;;2.70;;
20379;SDS011;10349;48.666;8.948;2023-07-20T03:38:26;2.60;;;2.40;;
20379;SDS011;10349;48.666;8.948;2023-07-20T03:40:54;2.40;;;2.20;;
20379;SDS011;10349;48.666;8.948;2023-07-20T03:43:22;2.67;;;2.47;;
20379;SDS011;10349;48.666;8.948;2023-07-20T03:45:48;2.73;;;2.53;;
20379;SDS011;10349;48.666;8.948;2023-07-20T03:48:18;3.13;;;2.93;;
20379;SDS011;10349;48.666;8.948;2023-07-20T03:50:45;4.80;;;3.27;;
20379;SDS011;10349;48.666;8.948;2023-07-20T03:53:12;4.30;;;2.60;;
20379;SDS011;10349;48.666;8.948;2023-07-20T03:55:39;2.83;;;2.63;;
20379;SDS011;10349;48.666;8.948;2023-07-20T03:58:06;2.93;;;2.50;;
20379;SDS011;10349;48.666;8.948;2023-07-20T04:00:32;4.00;;;2.60;;
20379;SDS011;10349;48.666;8.948;2023-07-20T04:02:58;6.63;;;3.37;;
20379;SDS011;10349;48.666;8.948;2023-07-20T04:05:24;9.40;;;3.00;;
20379;SDS011;10349;48.666;8.948;2023-07-20T04:07:51;3.40;;;2.80;;
20379;SDS011;10349;48.666;8.948;2023-07-20T04:10:17;3.33;;;2.93;;
20379;SDS011;10349;48.666;8.948;2023-07-20T04:12:44;3.50;;;3.20;;
20379;SDS011;10349;48.666;8.948;2023-07-20T04:15:10;11.07;;;3.43;;
20379;SDS011;10349;48.666;8.948;2023-07-20T04:17:36;2.27;;;2.17;;
20379;SDS011;10349;48.666;8.948;2023-07-20T04:20:02;4.30;;;3.43;;
20379;SDS011;10349;48.666;8.948;2023-07-20T04:22:29;2.70;;;2.50;;
20379;SDS011;10349;48.666;8.948;2023-07-20T04:24:54;2.70;;;2.50;;
20379;SDS011;10349;48.666;8.948;2023-07-20T04:27:21;2.87;;;2.67;;
20379;SDS011;10349;48.666;8.948;2023-07-20T04:29:47;2.57;;;2.37;;
20379;SDS011;10349;48.666;8.948;2023-07-20T04:32:13;3.20;;;2.90;;
20379;SDS011;10349;48.666;8.948;2023-07-20T04:34:39;2.87;;;2.67;;
20379;SDS011;10349;48.666;8.948;2023-07-20T04:37:04;2.33;;;2.13;;
20379;SDS011;10349;48.666;8.948;2023-07-20T04:39:30;2.63;;;2.43;;
20379;SDS011;10349;48.666;8.948;2023-07-20T04:41:57;3.03;;;2.73;;
20379;SDS011;10349;48.666;8.948;2023-07-20T04:44:23;3.33;;;2.77;;
20379;SDS011;10349;48.666;8.948;2023-07-20T04:46:49;2.70;;;2.50;;
20379;SDS011;10349;48.666;8.948;2023-07-20T04:49:15;3.10;;;2.23;;
20379;SDS011;10349;48.666;8.948;2023-07-20T04:51:42;3.53;;;2.67;;
20379;SDS011;10349;48.666;8.948;2023-07-20T04:54:09;3.00;;;2.80;;
20379;SDS011;10349;48.666;8.948;2023-07-20T04:56:36;2.80;;;2.60;;
20379;SDS011;10349;48.666;8.948;2023-07-20T04:59:07;5.20;;;2.90;;
20379;SDS011;10349;48.666;8.948;2023-07-20T05:01:32;2.63;;;2.43;;
20379;SDS011;10349;48.666;8.948;2023-07-20T05:04:01;2.57;;;1.93;;
20379;SDS011;10349;48.666;8.948;2023-07-20T05:06:27;2.63;;;2.43;;
20379;SDS011;10349;48.666;8.948;2023-07-20T05:08:53;7.50;;;3.30;;
20379;SDS011;10349;48.666;8.948;2023-07-20T05:11:18;3.07;;;2.87;;
20379;SDS011;10349;48.666;8.948;2023-07-20T05:13:44;4.53;;;2.27;;
20379;SDS011;10349;48.666;8.948;2023-07-20T05:16:10;3.47;;;2.87;;
20379;SDS011;10349;48.666;8.948;2023-07-20T05:18:36;4.67;;;2.57;;
20379;SDS011;10349;48.666;8.948;2023-07-20T05:21:02;4.47;;;2.77;;
20379;SDS011;10349;48.666;8.948;2023-07-20T05:23:28;2.90;;;2.70;;
20379;SDS011;10349;48.666;8.948;2023-07-20T05:25:54;4.50;;;2.70;;
20379;SDS011;10349;48.666;8.948;2023-07-20T05:28:21;2.67;;;2.30;;
20379;SDS011;10349;48.666;8.948;2023-07-20T05:30:47;4.27;;;2.63;;
20379;SDS011;10349;48.666;8.948;2023-07-20T05:33:13;3.83;;;2.80;;
20379;SDS011;10349;48.666;8.948;2023-07-20T05:35:39;3.70;;;2.67;;
20379;SDS011;10349;48.666;8.948;2023-07-20T05:38:04;2.70;;;2.50;;
20379;SDS011;10349;48.666;8.948;2023-07-20T05:40:31;3.93;;;2.50;;
20379;SDS011;10349;48.666;8.948;2023-07-20T05:42:57;3.30;;;3.00;;
20379;SDS011;10349;48.666;8.948;2023-07-20T05:45:24;2.83;;;2.20;;
20379;SDS011;10349;48.666;8.948;2023-07-20T05:47:49;2.00;;;1.90;;
20379;SDS011;10349;48.666;8.948;2023-07-20T05:50:15;2.30;;;2.10;;
20379;SDS011;10349;48.666;8.948;2023-07-20T05:52:41;2.77;;;2.40;;
20379;SDS011;10349;48.666;8.948;2023-07-20T05:55:06;2.20;;;2.00;;
20379;SDS011;10349;48.666;8.948;2023-07-20T05:57:33;2.90;;;2.70;;
20379;SDS011;10349;48.666;8.948;2023-07-20T05:59:58;2.60;;;2.40;;
20379;SDS011;10349;48.666;8.948;2023-07-20T06:02:24;2.40;;;2.20;;
20379;SDS011;10349;48.666;8.948;2023-07-20T06:04:50;3.30;;;2.40;;
20379;SDS011;10349;48.666;8.948;2023-07-20T06:07:15;2.33;;;2.17;;
20379;SDS011;10349;48.666;8.948;2023-07-20T06:09:41;2.77;;;2.57;;
20379;SDS011;10349;48.666;8.948;2023-07-20T06:12:07;1.90;;;1.80;;
20379;SDS011;10349;48.666;8.948;2023-07-20T06:14:33;2.30;;;2.10;;
20379;SDS011;10349;48.666;8.948;2023-07-20T06:16:59;2.10;;;1.90;;
20379;SDS011;10349;48.666;8.948;2023-07-20T06:19:25;2.03;;;1.93;;
20379;SDS011;10349;48.666;8.948;2023-07-20T06:21:51;2.90;;;2.70;;
20379;SDS011;10349;48.666;8.948;2023-07-20T06:24:17;3.10;;;2.23;;
20379;SDS011;10349;48.666;8.948;2023-07-20T06:26:43;6.23;;;3.27;;
20379;SDS011;10349;48.666;8.948;2023-07-20T06:29:08;2.70;;;2.50;;
20379;SDS011;10349;48.666;8.948;2023-07-20T06:31:34;3.70;;;2.50;;
20379;SDS011;10349;48.666;8.948;2023-07-20T06:34:01;2.27;;;2.10;;
20379;SDS011;10349;48.666;8.948;2023-07-20T06:36:27;1.87;;;1.73;;
20379;SDS011;10349;48.666;8.948;2023-07-20T06:38:52;2.47;;;2.27;;
20379;SDS011;10349;48.666;8.948;2023-07-20T06:41:18;2.30;;;2.10;;
20379;SDS011;10349;48.666;8.948;2023-07-20T06:43:44;4.43;;;2.30;;
20379;SDS011;10349;48.666;8.948;2023-07-20T06:46:10;2.50;;;2.07;;
20379;SDS011;10349;48.666;8.948;2023-07-20T06:48:36;3.73;;;2.37;;
20379;SDS011;10349;48.666;8.948;2023-07-20T06:51:02;2.80;;;2.40;;
20379;SDS011;10349;48.666;8.948;2023-07-20T06:53:28;2.53;;;1.90;;
20379;SDS011;10349;48.666;8.948;2023-07-20T06:55:54;2.80;;;2.60;;
20379;SDS011;10349;48.666;8.948;2023-07-20T06:58:22;5.30;;;2.90;;
20379;SDS011;10349;48.666;8.948;2023-07-20T07:00:48;2.67;;;2.47;;
20379;SDS011;10349;48.666;8.948;2023-07-20T07:03:14;3.23;;;2.87;;
20379;SDS011;10349;48.666;8.948;2023-07-20T07:05:40;4.37;;;2.50;;
20379;SDS011;10349;48.666;8.948;2023-07-20T07:08:06;3.00;;;2.03;;
20379;SDS011;10349;48.666;8.948;2023-07-20T07:10:32;2.57;;;2.13;;
20379;SDS011;10349;48.666;8.948;2023-07-20T07:13:00;8.50;;;2.20;;
20379;SDS011;10349;48.666;8.948;2023-07-20T07:15:26;2.50;;;2.30;;
20379;SDS011;10349;48.666;8.948;2023-07-20T07:17:52;5.40;;;2.47;;
20379;SDS011;10349;48.666;8.948;2023-07-20T07:20:18;3.77;;;2.73;;
20379;SDS011;10349;48.666;8.948;2023-07-20T07:22:44;2.20;;;2.10;;
20379;SDS011;10349;48.666;8.948;2023-07-20T07:25:10;6.07;;;3.13;;
20379;SDS011;10349;48.666;8.948;2023-07-20T07:27:36;2.43;;;2.23;;
20379;SDS011;10349;48.666;8.948;2023-07-20T07:30:02;2.43;;;2.23;;
20379;SDS011;10349;48.666;8.948;2023-07-20T07:32:28;3.37;;;2.20;;
20379;SDS011;10349;48.666;8.948;2023-07-20T07:34:54;3.90;;;2.80;;
20379;SDS011;10349;48.666;8.948;2023-07-20T07:37:20;3.13;;;2.83;;
20379;SDS011;10349;48.666;8.948;2023-07-20T07:39:46;3.57;;;3.30;;
20379;SDS011;10349;48.666;8.948;2023-07-20T07:42:11;3.10;;;2.90;;
20379;SDS011;10349;48.666;8.948;2023-07-20T07:44:38;2.60;;;2.40;;
20379;SDS011;10349;48.666;8.948;2023-07-20T07:47:04;2.20;;;2.10;;
20379;SDS011;10349;48.666;8.948;2023-07-20T07:49:30;4.60;;;2.27;;
20379;SDS011;10349;48.666;8.948;2023-07-20T07:51:56;6.00;;;2.23;;
20379;SDS011;10349;48.666;8.948;2023-07-20T07:54:22;3.10;;;2.87;;
20379;SDS011;10349;48.666;8.948;2023-07-20T07:56:48;3.03;;;2.00;;
20379;SDS011;10349;48.666;8.948;2023-07-20T07:59:13;4.00;;;2.70;;
20379;SDS011;10349;48.666;8.948;2023-07-20T08:01:39;5.57;;;2.97;;
20379;SDS011;10349;48.666;8.948;2023-07-20T08:04:05;2.80;;;2.60;;
20379;SDS011;10349;48.666;8.948;2023-07-20T08:06:31;3.30;;;2.17;;
20379;SDS011;10349;48.666;8.948;2023-07-20T08:08:57;3.17;;;2.70;;
20379;SDS011;10349;48.666;8.948;2023-07-20T08:11:23;2.77;;;2.57;;
20379;SDS011;10349;48.666;8.948;2023-07-20T08:13:49;6.63;;;2.70;;
20379;SDS011;10349;48.666;8.948;2023-07-20T08:16:14;3.00;;;2.80;;
20379;SDS011;10349;48.666;8.948;2023-07-20T08:18:40;2.90;;;2.40;;
20379;SDS011;10349;48.666;8.948;2023-07-20T08:21:06;3.77;;;2.87;;
20379;SDS011;10349;48.666;8.948;2023-07-20T08:23:31;2.93;;;2.73;;
20379;SDS011;10349;48.666;8.948;2023-07-20T08:25:57;2.60;;;2.40;;
20379;SDS011;10349;48.666;8.948;2023-07-20T08:28:23;3.40;;;2.63;;
20379;SDS011;10349;48.666;8.948;2023-07-20T08:30:49;1.97;;;1.87;;
20379;SDS011;10349;48.666;8.948;2023-07-20T08:33:18;2.47;;;2.27;;
20379;SDS011;10349;48.666;8.948;2023-07-20T08:35:45;2.80;;;2.60;;
20379;SDS011;10349;48.666;8.948;2023-07-20T08:38:11;2.93;;;2.47;;
20379;SDS011;10349;48.666;8.948;2023-07-20T08:40:56;2.73;;;2.53;;
20379;SDS011;10349;48.666;8.948;2023-07-20T08:43:22;2.13;;;2.03;;
20379;SDS011;10349;48.666;8.948;2023-07-20T08:45:52;2.80;;;2.60;;
20379;SDS011;10349;48.666;8.948;2023-07-20T08:48:21;2.47;;;2.27;;
20379;SDS011;10349;48.666;8.948;2023-07-20T08:50:49;1.90;;;1.80;;
20379;SDS011;10349;48.666;8.948;2023-07-20T08:53:16;2.33;;;2.13;;
20379;SDS011;10349;48.666;8.948;2023-07-20T08:55:44;3.17;;;2.37;;
20379;SDS011;10349;48.666;8.948;2023-07-20T08:58:11;9.37;;;2.30;;
20379;SDS011;10349;48.666;8.948;2023-07-20T09:00:39;3.53;;;2.33;;
20379;SDS011;10349;48.666;8.948;2023-07-20T09:03:06;2.27;;;2.17;;
20379;SDS011;10349;48.666;8.948;2023-07-20T09:05:33;2.17;;;1.97;;
20379;SDS011;10349;48.666;8.948;2023-07-20T09:08:00;2.20;;;2.00;;
20379;SDS011;10349;48.666;8.948;2023-07-20T09:10:28;2.07;;;1.87;;
20379;SDS011;10349;48.666;8.948;2023-07-20T09:12:55;2.30;;;2.20;;
20379;SDS011;10349;48.666;8.948;2023-07-20T09:15:21;2.47;;;2.27;;
20379;SDS011;10349;48.666;8.948;2023-07-20T09:17:48;2.10;;;2.00;;
20379;SDS011;10349;48.666;8.948;2023-07-20T09:20:16;2.47;;;1.90;;
20379;SDS011;10349;48.666;8.948;2023-07-20T09:22:43;2.20;;;2.00;;
20379;SDS011;10349;48.666;8.948;2023-07-20T09:25:12;1.90;;;1.70;;
20379;SDS011;10349;48.666;8.948;2023-07-20T09:27:41;2.33;;;1.53;;
20379;SDS011;10349;48.666;8.948;2023-07-20T09:30:09;7.53;;;1.80;;
20379;SDS011;10349;48.666;8.948;2023-07-20T09:32:38;3.00;;;1.80;;
20379;SDS011;10349;48.666;8.948;2023-07-20T09:35:15;2.57;;;2.10;;
20379;SDS011;10349;48.666;8.948;2023-07-20T09:37:58;3.63;;;2.07;;
20379;SDS011;10349;48.666;8.948;2023-07-20T09:40:25;2.43;;;2.23;;
20379;SDS011;10349;48.666;8.948;2023-07-20T09:42:52;1.73;;;1.63;;
20379;SDS011;10349;48.666;8.948;2023-07-20T09:45:28;2.67;;;1.53;;
20379;SDS011;10349;48.666;8.948;2023-07-20T09:48:14;1.93;;;1.83;;
20379;SDS011;10349;48.666;8.948;2023-07-20T09:50:40;1.80;;;1.50;;
20379;SDS011;10349;48.666;8.948;2023-07-20T09:53:12;2.37;;;2.17;;
20379;SDS011;10349;48.666;8.948;2023-07-20T09:55:39;2.23;;;1.97;;
20379;SDS011;10349;48.666;8.948;2023-07-20T09:58:08;1.67;;;1.57;;
20379;SDS011;10349;48.666;8.948;2023-07-20T10:00:35;1.90;;;1.80;;
20379;SDS011;10349;48.666;8.948;2023-07-20T10:03:02;1.70;;;1.60;;
20379;SDS011;10349;48.666;8.948;2023-07-20T10:05:32;1.97;;;1.60;;
20379;SDS011;10349;48.666;8.948;2023-07-20T10:08:00;2.63;;;1.83;;
20379;SDS011;10349;48.666;8.948;2023-07-20T10:10:28;1.67;;;1.57;;
20379;SDS011;10349;48.666;8.948;2023-07-20T10:12:55;1.70;;;1.60;;
20379;SDS011;10349;48.666;8.948;2023-07-20T10:15:32;1.70;;;1.60;;
20379;SDS011;10349;48.666;8.948;2023-07-20T10:18:09;6.90;;;1.60;;
20379;SDS011;10349;48.666;8.948;2023-07-20T10:20:40;2.20;;;2.07;;
20379;SDS011;10349;48.666;8.948;2023-07-20T10:23:09;5.30;;;1.57;;
20379;SDS011;10349;48.666;8.948;2023-07-20T10:25:36;1.40;;;1.30;;
20379;SDS011;10349;48.666;8.948;2023-07-20T10:28:05;1.80;;;1.60;;
20379;SDS011;10349;48.666;8.948;2023-07-20T10:30:32;5.57;;;2.20;;
20379;SDS011;10349;48.666;8.948;2023-07-20T10:33:00;1.80;;;1.27;;
20379;SDS011;10349;48.666;8.948;2023-07-20T10:35:29;1.70;;;1.40;;
20379;SDS011;10349;48.666;8.948;2023-07-20T10:38:02;1.37;;;1.20;;
20379;SDS011;10349;48.666;8.948;2023-07-20T10:43:02;3.00;;;1.57;;
20379;SDS011;10349;48.666;8.948;2023-07-20T10:45:51;1.60;;;1.50;;
20379;SDS011;10349;48.666;8.948;2023-07-20T10:53:35;1.20;;;1.10;;
20379;SDS011;10349;48.666;8.948;2023-07-20T10:56:13;1.60;;;1.43;;
20379;SDS011;10349;48.666;8.948;2023-07-20T10:58:43;2.00;;;1.80;;
20379;SDS011;10349;48.666;8.948;2023-07-20T11:01:11;1.53;;;1.40;;
20379;SDS011;10349;48.666;8.948;2023-07-20T11:03:39;2.70;;;1.70;;
20379;SDS011;10349;48.666;8.948;2023-07-20T11:11:46;1.83;;;1.73;;
20379;SDS011;10349;48.666;8.948;2023-07-20T11:14:22;2.37;;;1.97;;
20379;SDS011;10349;48.666;8.948;2023-07-20T11:16:49;1.67;;;1.57;;
20379;SDS011;10349;48.666;8.948;2023-07-20T11:19:20;1.90;;;1.80;;
20379;SDS011;10349;48.666;8.948;2023-07-20T11:21:52;1.70;;;1.47;;
20379;SDS011;10349;48.666;8.948;2023-07-20T11:24:18;2.80;;;1.57;;
20379;SDS011;10349;48.666;8.948;2023-07-20T11:26:51;1.70;;;1.60;;
20379;SDS011;10349;48.666;8.948;2023-07-20T11:29:18;1.80;;;1.63;;
20379;SDS011;10349;48.666;8.948;2023-07-20T11:31:46;2.20;;;2.00;;
20379;SDS011;10349;48.666;8.948;2023-07-20T11:34:14;2.13;;;1.93;;
20379;SDS011;10349;48.666;8.948;2023-07-20T11:36:45;1.97;;;1.87;;
20379;SDS011;10349;48.666;8.948;2023-07-20T11:39:15;2.77;;;1.70;;
20379;SDS011;10349;48.666;8.948;2023-07-20T11:41:48;1.60;;;1.43;;
20379;SDS011;10349;48.666;8.948;2023-07-20T11:44:24;2.40;;;1.43;;
20379;SDS011;10349;48.666;8.948;2023-07-20T11:49:41;1.63;;;1.37;;
20379;SDS011;10349;48.666;8.948;2023-07-20T11:52:10;1.50;;;1.40;;
20379;SDS011;10349;48.666;8.948;2023-07-20T11:54:41;2.27;;;1.23;;
20379;SDS011;10349;48.666;8.948;2023-07-20T11:57:15;1.80;;;1.70;;
20379;SDS011;10349;48.666;8.948;2023-07-20T11:59:54;1.67;;;1.57;;
20379;SDS011;10349;48.666;8.948;2023-07-20T12:02:22;1.70;;;1.47;;
20379;SDS011;10349;48.666;8.948;2023-07-20T12:04:51;2.17;;;1.57;;
20379;SDS011;10349;48.666;8.948;2023-07-20T12:07:18;12.23;;;1.90;;
20379;SDS011;10349;48.666;8.948;2023-07-20T12:10:02;1.50;;;1.40;;
20379;SDS011;10349;48.666;8.948;2023-07-20T12:12:30;1.57;;;1.47;;
20379;SDS011;10349;48.666;8.948;2023-07-20T12:18:01;1.50;;;1.40;;
20379;SDS011;10349;48.666;8.948;2023-07-20T12:20:34;2.37;;;1.50;;
20379;SDS011;10349;48.666;8.948;2023-07-20T12:25:36;2.13;;;1.70;;
20379;SDS011;10349;48.666;8.948;2023-07-20T12:28:12;1.43;;;1.33;;
20379;SDS011;10349;48.666;8.948;2023-07-20T12:30:39;1.67;;;1.57;;
20379;SDS011;10349;48.666;8.948;2023-07-20T12:33:07;1.43;;;1.33;;
20379;SDS011;10349;48.666;8.948;2023-07-20T12:35:33;1.50;;;1.40;;
20379;SDS011;10349;48.666;8.948;2023-07-20T12:37:59;1.50;;;1.40;;
20379;SDS011;10349;48.666;8.948;2023-07-20T12:40:25;1.67;;;1.57;;
20379;SDS011;10349;48.666;8.948;2023-07-20T12:42:51;3.67;;;2.00;;
20379;SDS011;10349;48.666;8.948;2023-07-20T12:45:17;2.73;;;1.47;;
20379;SDS011;10349;48.666;8.948;2023-07-20T12:47:43;1.70;;;1.60;;
20379;SDS011;10349;48.666;8.948;2023-07-20T12:50:09;1.63;;;1.53;;
20379;SDS011;10349;48.666;8.948;2023-07-20T12:52:36;1.50;;;1.30;;
20379;SDS011;10349;48.666;8.948;2023-07-20T12:55:06;1.40;;;1.30;;
20379;SDS011;10349;48.666;8.948;2023-07-20T12:57:36;1.50;;;1.40;;
20379;SDS011;10349;48.666;8.948;2023-07-20T13:00:03;1.20;;;1.10;;
20379;SDS011;10349;48.666;8.948;2023-07-20T13:02:32;2.23;;;1.67;;
20379;SDS011;10349;48.666;8.948;2023-07-20T13:04:58;3.73;;;1.50;;
20379;SDS011;10349;48.666;8.948;2023-07-20T13:07:30;1.50;;;1.40;;
20379;SDS011;10349;48.666;8.948;2023-07-20T13:09:58;1.93;;;1.83;;
20379;SDS011;10349;48.666;8.948;2023-07-20T13:12:28;1.80;;;1.70;;
20379;SDS011;10349;48.666;8.948;2023-07-20T13:14:55;1.43;;;1.33;;
20379;SDS011;10349;48.666;8.948;2023-07-20T13:17:22;2.00;;;1.23;;
20379;SDS011;10349;48.666;8.948;2023-07-20T13:19:48;1.73;;;1.10;;
20379;SDS011;10349;48.666;8.948;2023-07-20T13:25:02;1.63;;;1.33;;
20379;SDS011;10349;48.666;8.948;2023-07-20T13:27:28;1.30;;;1.20;;
20379;SDS011;10349;48.666;8.948;2023-07-20T13:29:55;1.40;;;1.30;;
20379;SDS011;10349;48.666;8.948;2023-07-20T13:32:22;2.90;;;1.50;;
20379;SDS011;10349;48.666;8.948;2023-07-20T13:34:48;1.93;;;1.83;;
20379;SDS011;10349;48.666;8.948;2023-07-20T13:37:13;2.37;;;1.50;;
20379;SDS011;10349;48.666;8.948;2023-07-20T13:39:41;1.40;;;1.30;;
20379;SDS011;10349;48.666;8.948;2023-07-20T13:42:07;1.63;;;1.53;;
20379;SDS011;10349;48.666;8.948;2023-07-20T13:44:34;2.07;;;1.40;;
20379;SDS011;10349;48.666;8.948;2023-07-20T13:47:00;1.33;;;1.23;;
20379;SDS011;10349;48.666;8.948;2023-07-20T13:49:26;1.80;;;1.70;;
20379;SDS011;10349;48.666;8.948;2023-07-20T13:51:52;2.10;;;1.90;;
20379;SDS011;10349;48.666;8.948;2023-07-20T13:54:18;1.50;;;1.40;;
20379;SDS011;10349;48.666;8.948;2023-07-20T13:56:44;1.60;;;1.13;;
20379;SDS011;10349;48.666;8.948;2023-07-20T13:59:09;2.50;;;1.50;;
20379;SDS011;10349;48.666;8.948;2023-07-20T14:01:35;1.40;;;1.30;;
20379;SDS011;10349;48.666;8.948;2023-07-20T14:04:01;1.40;;;1.27;;
20379;SDS011;10349;48.666;8.948;2023-07-20T14:06:31;1.40;;;1.20;;
20379;SDS011;10349;48.666;8.948;2023-07-20T14:08:58;1.53;;;1.43;;
20379;SDS011;10349;48.666;8.948;2023-07-20T14:11:27;2.07;;;1.77;;
20379;SDS011;10349;48.666;8.948;2023-07-20T14:13:53;1.90;;;1.80;;
20379;SDS011;10349;48.666;8.948;2023-07-20T14:16:22;1.43;;;1.33;;
20379;SDS011;10349;48.666;8.948;2023-07-20T14:18:48;1.50;;;1.40;;
20379;SDS011;10349;48.666;8.948;2023-07-20T14:21:14;1.23;;;1.13;;
20379;SDS011;10349;48.666;8.948;2023-07-20T14:23:41;1.70;;;1.47;;
20379;SDS011;10349;48.666;8.948;2023-07-20T14:26:07;2.27;;;1.50;;
20379;SDS011;10349;48.666;8.948;2023-07-20T14:28:34;1.57;;;1.47;;
20379;SDS011;10349;48.666;8.948;2023-07-20T14:31:00;1.90;;;1.80;;
20379;SDS011;10349;48.666;8.948;2023-07-20T14:33:26;1.30;;;1.20;;
20379;SDS011;10349;48.666;8.948;2023-07-20T14:35:51;1.77;;;1.30;;
20379;SDS011;10349;48.666;8.948;2023-07-20T14:38:17;1.87;;;1.20;;
20379;SDS011;10349;48.666;8.948;2023-07-20T14:40:43;1.77;;;1.67;;
20379;SDS011;10349;48.666;8.948;2023-07-20T14:43:09;1.50;;;1.40;;
20379;SDS011;10349;48.666;8.948;2023-07-20T14:45:35;1.87;;;1.77;;
20379;SDS011;10349;48.666;8.948;2023-07-20T14:48:03;2.23;;;1.87;;
20379;SDS011;10349;48.666;8.948;2023-07-20T14:50:29;1.60;;;1.50;;
20379;SDS011;10349;48.666;8.948;2023-07-20T14:52:54;1.50;;;1.40;;
20379;SDS011;10349;48.666;8.948;2023-07-20T14:55:20;1.40;;;1.30;;
20379;SDS011;10349;48.666;8.948;2023-07-20T14:57:47;4.00;;;1.80;;
20379;SDS011;10349;48.666;8.948;2023-07-20T15:00:14;1.40;;;1.30;;
20379;SDS011;10349;48.666;8.948;2023-07-20T15:02:40;1.90;;;1.47;;
20379;SDS011;10349;48.666;8.948;2023-07-20T15:05:06;1.80;;;1.50;;
20379;SDS011;10349;48.666;8.948;2023-07-20T15:07:33;1.40;;;1.30;;
20379;SDS011;10349;48.666;8.948;2023-07-20T15:09:59;5.83;;;2.10;;
20379;SDS011;10349;48.666;8.948;2023-07-20T15:12:26;1.77;;;1.67;;
20379;SDS011;10349;48.666;8.948;2023-07-20T15:15:05;1.60;;;1.50;;
20379;SDS011;10349;48.666;8.948;2023-07-20T15:17:33;2.47;;;1.80;;
20379;SDS011;10349;48.666;8.948;2023-07-20T15:19:59;1.43;;;1.33;;
20379;SDS011;10349;48.666;8.948;2023-07-20T15:22:29;1.63;;;1.27;;
20379;SDS011;10349;48.666;8.948;2023-07-20T15:24:56;1.57;;;1.47;;